createdAt,value
2017-01-29T00:00:40.364Z,33.39
2017-01-29T00:01:20.962Z,33.2
2017-01-29T00:02:01.551Z,33.29
2017-01-29T00:02:42.136Z,33.2
2017-01-29T00:03:22.717Z,33.29
2017-01-29T00:04:03.307Z,33.2
2017-01-29T00:04:43.898Z,33.2
2017-01-29T00:05:24.479Z,33.2
2017-01-29T00:06:05.061Z,33.28
2017-01-29T00:06:45.645Z,33.18
2017-01-29T00:07:26.230Z,33.1
2017-01-29T00:08:06.810Z,33.29
2017-01-29T00:08:47.401Z,33.2
2017-01-29T00:09:27.975Z,33.18
2017-01-29T00:10:08.555Z,33.18
2017-01-29T00:10:49.154Z,33.1
2017-01-29T00:11:29.754Z,33.29
2017-01-29T00:12:10.331Z,33.2
2017-01-29T00:12:50.915Z,33.09
2017-01-29T00:13:31.498Z,33.1
2017-01-29T00:14:12.082Z,33.29
2017-01-29T00:14:52.677Z,33.37
2017-01-29T00:15:33.254Z,33.28
2017-01-29T00:16:13.843Z,33.2
2017-01-29T00:16:54.449Z,33.1
2017-01-29T00:17:35.038Z,33.2
2017-01-29T00:18:15.627Z,32.99
2017-01-29T00:18:56.214Z,33.2
2017-01-29T00:19:36.789Z,33.09
2017-01-29T00:20:17.399Z,33.2
2017-01-29T00:20:57.987Z,33.18
2017-01-29T00:21:38.582Z,33.1
2017-01-29T00:22:19.186Z,33.18
2017-01-29T00:22:59.794Z,33.09
2017-01-29T00:23:40.369Z,33.29
2017-01-29T00:24:20.972Z,33.1
2017-01-29T00:25:01.566Z,33.2
2017-01-29T00:25:42.164Z,33.18
2017-01-29T00:26:22.748Z,33.29
2017-01-29T00:27:03.342Z,33
2017-01-29T00:27:43.939Z,33.18
2017-01-29T00:28:24.520Z,33.2
2017-01-29T00:29:05.125Z,33.2
2017-01-29T00:29:45.724Z,33.28
2017-01-29T00:30:26.316Z,33
2017-01-29T00:31:06.894Z,33.09
2017-01-29T00:31:47.471Z,33.09
2017-01-29T00:32:28.049Z,32.99
2017-01-29T00:33:08.626Z,32.99
2017-01-29T00:33:49.218Z,33
2017-01-29T00:34:29.803Z,32.99
2017-01-29T00:35:10.385Z,32.99
2017-01-29T00:35:50.989Z,33.09
2017-01-29T00:36:31.597Z,33
2017-01-29T00:37:12.178Z,33.09
2017-01-29T00:37:52.798Z,33.18
2017-01-29T00:38:33.400Z,33.09
2017-01-29T00:39:13.982Z,32.99
2017-01-29T00:39:54.563Z,32.99
2017-01-29T00:40:35.151Z,33.1
2017-01-29T00:41:15.732Z,32.99
2017-01-29T00:41:56.321Z,33.09
2017-01-29T00:42:36.911Z,33.09
2017-01-29T00:43:17.503Z,33.09
2017-01-29T00:43:58.080Z,32.99
2017-01-29T00:44:38.662Z,33.28
2017-01-29T00:45:19.246Z,33.09
2017-01-29T00:45:59.820Z,33.09
2017-01-29T00:46:40.411Z,33.28
2017-01-29T00:47:21.022Z,33.09
2017-01-29T00:48:01.619Z,33.37
2017-01-29T00:48:42.204Z,33.18
2017-01-29T00:49:22.805Z,32.99
2017-01-29T00:50:03.385Z,33.09
2017-01-29T00:50:43.987Z,33.09
2017-01-29T00:51:24.603Z,33.09
2017-01-29T00:52:05.242Z,33.18
2017-01-29T00:52:45.837Z,32.99
2017-01-29T00:53:26.441Z,33.18
2017-01-29T00:54:07.045Z,32.99
2017-01-29T00:54:47.645Z,32.99
2017-01-29T00:55:28.244Z,33.28
2017-01-29T00:56:08.856Z,33.18
2017-01-29T00:56:49.447Z,32.99
2017-01-29T00:57:30.044Z,32.89
2017-01-29T00:58:10.622Z,33.18
2017-01-29T00:58:51.203Z,32.99
2017-01-29T00:59:31.810Z,32.99
2017-01-29T01:00:12.406Z,33.18
2017-01-29T01:00:53.026Z,33.09
2017-01-29T01:01:33.614Z,32.99
2017-01-29T01:02:14.221Z,32.99
2017-01-29T01:02:54.808Z,32.99
2017-01-29T01:03:35.431Z,33.09
2017-01-29T01:04:15.996Z,32.99
2017-01-29T01:04:56.581Z,33.09
2017-01-29T01:05:37.176Z,32.79
2017-01-29T01:06:17.779Z,32.99
2017-01-29T01:06:58.379Z,32.99
2017-01-29T01:07:38.990Z,32.99
2017-01-29T01:08:19.581Z,32.99
2017-01-29T01:09:00.189Z,33.18
2017-01-29T01:09:40.796Z,32.99
2017-01-29T01:10:21.383Z,33.09
2017-01-29T01:11:01.990Z,33.18
2017-01-29T01:11:42.630Z,32.89
2017-01-29T01:12:23.229Z,33.09
2017-01-29T01:13:03.830Z,33.09
2017-01-29T01:13:44.457Z,32.89
2017-01-29T01:14:25.057Z,32.7
2017-01-29T01:15:05.646Z,32.99
2017-01-29T01:15:46.244Z,32.99
2017-01-29T01:16:26.836Z,32.99
2017-01-29T01:17:07.424Z,33.09
2017-01-29T01:17:48.010Z,32.89
2017-01-29T01:18:28.595Z,33.09
2017-01-29T01:19:09.179Z,32.99
2017-01-29T01:19:49.759Z,32.99
2017-01-29T01:20:30.362Z,33.09
2017-01-29T01:21:10.958Z,32.99
2017-01-29T01:21:51.569Z,32.89
2017-01-29T01:22:32.164Z,32.99
2017-01-29T01:23:12.752Z,32.89
2017-01-29T01:23:53.342Z,32.99
2017-01-29T01:24:33.945Z,32.99
2017-01-29T01:25:14.528Z,32.99
2017-01-29T01:25:55.125Z,33.28
2017-01-29T01:26:35.727Z,32.99
2017-01-29T01:27:16.321Z,33.28
2017-01-29T01:27:56.915Z,33.09
2017-01-29T01:28:37.487Z,32.89
2017-01-29T01:29:18.076Z,33.37
2017-01-29T01:29:58.665Z,32.89
2017-01-29T01:30:39.242Z,32.79
2017-01-29T01:31:19.830Z,33.09
2017-01-29T01:32:00.416Z,32.79
2017-01-29T01:32:41.019Z,32.7
2017-01-29T01:33:21.602Z,32.51
2017-01-29T01:34:02.196Z,32.7
2017-01-29T01:34:42.786Z,32.99
2017-01-29T01:35:23.375Z,33.18
2017-01-29T01:36:04.006Z,32.99
2017-01-29T01:36:44.592Z,32.99
2017-01-29T01:37:25.201Z,32.7
2017-01-29T01:38:05.787Z,32.89
2017-01-29T01:38:46.378Z,32.7
2017-01-29T01:39:26.966Z,32.7
2017-01-29T01:40:07.548Z,32.7
2017-01-29T01:40:48.124Z,32.51
2017-01-29T01:41:28.706Z,33.18
2017-01-29T01:42:09.295Z,32.7
2017-01-29T01:42:49.877Z,32.7
2017-01-29T01:43:30.460Z,32.79
2017-01-29T01:44:11.054Z,32.51
2017-01-29T01:44:51.662Z,32.79
2017-01-29T01:45:32.245Z,33.09
2017-01-29T01:46:12.844Z,32.79
2017-01-29T01:46:53.424Z,33.28
2017-01-29T01:47:34.013Z,32.79
2017-01-29T01:48:14.611Z,32.7
2017-01-29T01:48:55.209Z,32.99
2017-01-29T01:49:35.795Z,32.89
2017-01-29T01:50:16.378Z,32.89
2017-01-29T01:50:56.959Z,32.89
2017-01-29T01:51:37.560Z,32.7
2017-01-29T01:52:18.141Z,32.79
2017-01-29T01:52:58.728Z,32.7
2017-01-29T01:53:39.326Z,33.28
2017-01-29T01:54:19.923Z,33.28
2017-01-29T01:55:00.502Z,32.6
2017-01-29T01:55:41.086Z,32.79
2017-01-29T01:56:21.677Z,32.7
2017-01-29T01:57:02.259Z,32.99
2017-01-29T01:57:42.871Z,32.41
2017-01-29T01:58:23.463Z,32.89
2017-01-29T01:59:04.049Z,32.99
2017-01-29T01:59:44.676Z,32.89
2017-01-29T02:00:25.268Z,32.41
2017-01-29T02:01:05.856Z,32.51
2017-01-29T02:01:46.441Z,32.51
2017-01-29T02:02:27.034Z,32.41
2017-01-29T02:03:07.621Z,32.51
2017-01-29T02:03:48.215Z,32.6
2017-01-29T02:04:28.826Z,32.51
2017-01-29T02:05:09.408Z,32.51
2017-01-29T02:05:49.999Z,33.28
2017-01-29T02:06:30.588Z,32.89
2017-01-29T02:07:11.203Z,32.41
2017-01-29T02:07:51.812Z,32.79
2017-01-29T02:08:32.394Z,32.79
2017-01-29T02:09:12.988Z,32.99
2017-01-29T02:09:53.574Z,32.51
2017-01-29T02:10:34.160Z,32.89
2017-01-29T02:11:14.739Z,32.89
2017-01-29T02:11:55.321Z,32.51
2017-01-29T02:12:35.905Z,33.28
2017-01-29T02:13:16.481Z,32.6
2017-01-29T02:13:57.061Z,32.51
2017-01-29T02:14:37.647Z,32.51
2017-01-29T02:15:18.239Z,32.41
2017-01-29T02:15:58.822Z,32.51
2017-01-29T02:16:39.420Z,32.41
2017-01-29T02:17:20.006Z,32.51
2017-01-29T02:18:00.606Z,32.51
2017-01-29T02:18:41.213Z,32.6
2017-01-29T02:19:21.798Z,32.7
2017-01-29T02:20:02.381Z,32.51
2017-01-29T02:20:42.961Z,32.41
2017-01-29T02:21:23.551Z,33.28
2017-01-29T02:22:04.152Z,32.41
2017-01-29T02:22:44.743Z,32.51
2017-01-29T02:23:25.327Z,32.51
2017-01-29T02:24:05.921Z,32.51
2017-01-29T02:24:46.514Z,32.51
2017-01-29T02:25:27.102Z,32.51
2017-01-29T02:26:07.679Z,32.6
2017-01-29T02:26:48.267Z,32.7
2017-01-29T02:27:28.856Z,32.51
2017-01-29T02:28:09.435Z,32.51
2017-01-29T02:28:50.026Z,32.6
2017-01-29T02:29:30.611Z,32.51
2017-01-29T02:30:11.189Z,32.51
2017-01-29T02:30:51.775Z,32.41
2017-01-29T02:31:32.360Z,32.6
2017-01-29T02:32:12.951Z,32.6
2017-01-29T02:32:54.199Z,32.51
2017-01-29T02:33:34.781Z,32.51
2017-01-29T02:34:15.373Z,32.51
2017-01-29T02:34:55.948Z,32.6
2017-01-29T02:35:36.548Z,32.79
2017-01-29T02:36:17.149Z,32.6
2017-01-29T02:36:57.740Z,32.51
2017-01-29T02:37:38.330Z,32.7
2017-01-29T02:38:18.929Z,32.51
2017-01-29T02:38:59.539Z,32.79
2017-01-29T02:39:40.145Z,32.6
2017-01-29T02:40:20.729Z,32.89
2017-01-29T02:41:01.320Z,32.51
2017-01-29T02:41:41.905Z,32.51
2017-01-29T02:42:22.490Z,32.7
2017-01-29T02:43:03.078Z,32.6
2017-01-29T02:43:43.660Z,32.6
2017-01-29T02:44:24.253Z,32.6
2017-01-29T02:45:04.837Z,32.7
2017-01-29T02:45:45.416Z,32.51
2017-01-29T02:46:26.011Z,32.6
2017-01-29T02:47:06.607Z,32.6
2017-01-29T02:47:47.200Z,32.89
2017-01-29T02:48:27.791Z,32.6
2017-01-29T02:49:08.374Z,32.6
2017-01-29T02:49:48.971Z,32.6
2017-01-29T02:50:29.562Z,32.6
2017-01-29T02:51:10.159Z,32.6
2017-01-29T02:51:50.747Z,32.7
2017-01-29T02:52:31.316Z,32.7
2017-01-29T02:53:11.916Z,32.6
2017-01-29T02:53:52.496Z,32.79
2017-01-29T02:54:33.086Z,32.51
2017-01-29T02:55:13.688Z,32.7
2017-01-29T02:55:54.268Z,32.79
2017-01-29T02:56:34.864Z,32.7
2017-01-29T02:57:15.452Z,32.6
2017-01-29T02:57:56.077Z,32.79
2017-01-29T02:58:36.680Z,32.6
2017-01-29T02:59:17.254Z,32.6
2017-01-29T02:59:57.831Z,32.7
2017-01-29T03:00:38.417Z,32.7
2017-01-29T03:01:19.011Z,32.7
2017-01-29T03:01:59.601Z,32.6
2017-01-29T03:02:40.187Z,32.7
2017-01-29T03:03:20.781Z,32.6
2017-01-29T03:04:01.378Z,32.7
2017-01-29T03:04:41.957Z,32.7
2017-01-29T03:05:22.543Z,32.7
2017-01-29T03:06:03.159Z,32.7
2017-01-29T03:06:43.724Z,32.6
2017-01-29T03:07:24.343Z,32.6
2017-01-29T03:08:04.928Z,32.6
2017-01-29T03:08:45.524Z,32.6
2017-01-29T03:09:26.119Z,32.7
2017-01-29T03:10:06.703Z,32.6
2017-01-29T03:10:47.301Z,32.79
2017-01-29T03:11:27.890Z,32.7
2017-01-29T03:12:08.473Z,32.7
2017-01-29T03:12:49.059Z,32.79
2017-01-29T03:13:29.648Z,32.7
2017-01-29T03:14:10.243Z,32.7
2017-01-29T03:14:50.831Z,32.6
2017-01-29T03:15:31.426Z,32.7
2017-01-29T03:16:12.019Z,32.79
2017-01-29T03:16:52.613Z,32.7
2017-01-29T03:17:33.208Z,32.6
2017-01-29T03:18:13.824Z,32.7
2017-01-29T03:18:54.411Z,32.6
2017-01-29T03:19:35.001Z,32.7
2017-01-29T03:20:15.615Z,32.79
2017-01-29T03:20:56.212Z,32.7
2017-01-29T03:21:36.798Z,32.7
2017-01-29T03:22:17.381Z,32.7
2017-01-29T03:22:57.979Z,32.7
2017-01-29T03:23:38.556Z,32.79
2017-01-29T03:24:19.142Z,32.7
2017-01-29T03:24:59.736Z,32.7
2017-01-29T03:25:40.325Z,32.6
2017-01-29T03:26:20.935Z,32.6
2017-01-29T03:27:01.534Z,32.79
2017-01-29T03:27:42.116Z,32.6
2017-01-29T03:28:22.709Z,32.79
2017-01-29T03:29:03.298Z,32.6
2017-01-29T03:29:43.898Z,32.7
2017-01-29T03:30:24.481Z,32.7
2017-01-29T03:31:05.059Z,32.7
2017-01-29T03:31:45.642Z,32.89
2017-01-29T03:32:26.222Z,32.79
2017-01-29T03:33:06.813Z,32.89
2017-01-29T03:33:47.395Z,32.79
2017-01-29T03:34:27.971Z,32.79
2017-01-29T03:35:08.571Z,32.89
2017-01-29T03:35:49.165Z,32.89
2017-01-29T03:36:29.758Z,32.79
2017-01-29T03:37:10.357Z,32.89
2017-01-29T03:37:50.984Z,32.79
2017-01-29T03:38:31.567Z,32.7
2017-01-29T03:39:12.150Z,32.6
2017-01-29T03:39:52.739Z,32.79
2017-01-29T03:40:33.334Z,32.6
2017-01-29T03:41:13.919Z,32.7
2017-01-29T03:41:54.520Z,32.7
2017-01-29T03:42:35.113Z,32.7
2017-01-29T03:43:15.691Z,32.7
2017-01-29T03:43:56.291Z,32.7
2017-01-29T03:44:36.893Z,32.79
2017-01-29T03:45:17.489Z,32.7
2017-01-29T03:45:58.076Z,32.79
2017-01-29T03:46:38.666Z,32.79
2017-01-29T03:47:19.249Z,32.6
2017-01-29T03:47:59.849Z,32.79
2017-01-29T03:48:40.429Z,32.7
2017-01-29T03:49:21.014Z,32.79
2017-01-29T03:50:01.598Z,32.7
2017-01-29T03:50:42.201Z,32.7
2017-01-29T03:51:22.802Z,32.89
2017-01-29T03:52:03.393Z,32.89
2017-01-29T03:52:43.978Z,32.79
2017-01-29T03:53:24.560Z,32.89
2017-01-29T03:54:05.139Z,32.89
2017-01-29T03:54:45.739Z,32.7
2017-01-29T03:55:26.321Z,32.89
2017-01-29T03:56:06.923Z,32.7
2017-01-29T03:56:47.510Z,32.79
2017-01-29T03:57:28.100Z,32.79
2017-01-29T03:58:08.693Z,32.89
2017-01-29T03:58:49.278Z,32.79
2017-01-29T03:59:29.874Z,32.7
2017-01-29T04:00:10.462Z,32.79
2017-01-29T04:00:51.062Z,32.79
2017-01-29T04:01:31.657Z,32.7
2017-01-29T04:02:12.251Z,32.89
2017-01-29T04:02:52.852Z,32.79
2017-01-29T04:03:33.426Z,32.7
2017-01-29T04:04:14.008Z,32.79
2017-01-29T04:04:54.627Z,32.7
2017-01-29T04:05:35.233Z,32.79
2017-01-29T04:06:15.828Z,32.7
2017-01-29T04:06:56.431Z,32.7
2017-01-29T04:07:37.028Z,32.7
2017-01-29T04:08:17.607Z,32.7
2017-01-29T04:08:58.185Z,32.79
2017-01-29T04:09:38.784Z,32.79
2017-01-29T04:10:19.365Z,32.79
2017-01-29T04:10:59.944Z,32.89
2017-01-29T04:11:40.535Z,32.6
2017-01-29T04:12:21.122Z,32.89
2017-01-29T04:13:01.724Z,32.6
2017-01-29T04:13:42.309Z,32.7
2017-01-29T04:14:22.904Z,32.89
2017-01-29T04:15:03.498Z,32.7
2017-01-29T04:15:44.086Z,32.7
2017-01-29T04:16:24.679Z,32.79
2017-01-29T04:17:05.278Z,32.79
2017-01-29T04:17:45.859Z,32.79
2017-01-29T04:18:26.463Z,32.7
2017-01-29T04:19:07.047Z,32.7
2017-01-29T04:19:47.635Z,32.89
2017-01-29T04:20:28.226Z,32.6
2017-01-29T04:21:08.862Z,32.79
2017-01-29T04:21:49.429Z,32.89
2017-01-29T04:22:30.024Z,32.7
2017-01-29T04:23:10.595Z,32.79
2017-01-29T04:23:51.187Z,32.79
2017-01-29T04:24:31.796Z,32.79
2017-01-29T04:25:12.382Z,32.89
2017-01-29T04:25:52.972Z,32.7
2017-01-29T04:26:33.569Z,32.7
2017-01-29T04:27:14.160Z,32.7
2017-01-29T04:27:54.752Z,32.79
2017-01-29T04:28:35.346Z,32.7
2017-01-29T04:29:15.933Z,32.79
2017-01-29T04:29:56.525Z,32.7
2017-01-29T04:30:37.121Z,32.79
2017-01-29T04:31:17.706Z,32.79
2017-01-29T04:31:58.299Z,32.7
2017-01-29T04:32:38.871Z,32.79
2017-01-29T04:33:19.453Z,32.79
2017-01-29T04:34:00.043Z,32.89
2017-01-29T04:34:40.646Z,32.79
2017-01-29T04:35:21.226Z,32.6
2017-01-29T04:36:01.809Z,32.89
2017-01-29T04:36:42.397Z,32.89
2017-01-29T04:37:22.976Z,32.79
2017-01-29T04:38:03.568Z,32.89
2017-01-29T04:38:44.170Z,32.79
2017-01-29T04:39:24.768Z,32.7
2017-01-29T04:40:05.350Z,32.6
2017-01-29T04:40:45.932Z,32.7
2017-01-29T04:41:26.540Z,32.7
2017-01-29T04:42:07.136Z,32.89
2017-01-29T04:42:47.725Z,32.79
2017-01-29T04:43:28.317Z,32.7
2017-01-29T04:44:08.925Z,32.89
2017-01-29T04:44:49.543Z,32.89
2017-01-29T04:45:30.135Z,32.89
2017-01-29T04:46:10.727Z,32.6
2017-01-29T04:46:51.331Z,32.89
2017-01-29T04:47:31.913Z,32.79
2017-01-29T04:48:12.498Z,32.6
2017-01-29T04:48:53.087Z,32.6
2017-01-29T04:49:33.698Z,32.89
2017-01-29T04:50:14.295Z,32.79
2017-01-29T04:50:54.882Z,32.7
2017-01-29T04:51:35.474Z,32.79
2017-01-29T04:52:16.072Z,32.89
2017-01-29T04:52:56.661Z,32.31
2017-01-29T04:53:37.252Z,32.7
2017-01-29T04:54:17.826Z,32.79
2017-01-29T04:54:58.412Z,32.59
2017-01-29T04:55:39.001Z,32.6
2017-01-29T04:56:19.595Z,32.7
2017-01-29T04:57:00.178Z,32.7
2017-01-29T04:57:40.769Z,32.59
2017-01-29T04:58:21.350Z,32.6
2017-01-29T04:59:01.944Z,32.78
2017-01-29T04:59:42.556Z,32.6
2017-01-29T05:00:23.109Z,32.79
2017-01-29T05:01:03.694Z,32.7
2017-01-29T05:01:44.300Z,32.7
2017-01-29T05:02:24.901Z,32.49
2017-01-29T05:03:05.502Z,32.51
2017-01-29T05:03:46.079Z,32.79
2017-01-29T05:04:26.675Z,32.7
2017-01-29T05:05:07.266Z,32.51
2017-01-29T05:05:47.868Z,32.6
2017-01-29T05:06:28.472Z,32.6
2017-01-29T05:07:09.079Z,32.89
2017-01-29T05:07:49.667Z,32.79
2017-01-29T05:08:30.253Z,32.89
2017-01-29T05:09:10.846Z,32.6
2017-01-29T05:09:51.430Z,32.6
2017-01-29T05:10:32.020Z,32.79
2017-01-29T05:11:12.612Z,32.89
2017-01-29T05:11:53.194Z,32.41
2017-01-29T05:12:33.823Z,32.7
2017-01-29T05:13:14.420Z,32.7
2017-01-29T05:13:55.022Z,32.7
2017-01-29T05:14:35.623Z,32.89
2017-01-29T05:15:16.220Z,32.79
2017-01-29T05:15:56.794Z,32.7
2017-01-29T05:16:37.378Z,32.89
2017-01-29T05:17:17.971Z,32.6
2017-01-29T05:17:58.572Z,32.51
2017-01-29T05:18:39.164Z,32.31
2017-01-29T05:19:19.756Z,32.6
2017-01-29T05:20:00.345Z,32.79
2017-01-29T05:20:40.929Z,32.68
2017-01-29T05:21:21.527Z,32.7
2017-01-29T05:22:02.109Z,32.7
2017-01-29T05:22:42.699Z,32.51
2017-01-29T05:23:23.299Z,32.79
2017-01-29T05:24:03.885Z,32.39
2017-01-29T05:24:44.490Z,32.59
2017-01-29T05:25:25.092Z,32.68
2017-01-29T05:26:05.695Z,32.79
2017-01-29T05:26:46.257Z,32.39
2017-01-29T05:27:26.845Z,32.49
2017-01-29T05:28:07.430Z,32.79
2017-01-29T05:28:48.022Z,32.6
2017-01-29T05:29:28.603Z,32.41
2017-01-29T05:30:09.183Z,32.41
2017-01-29T05:30:49.773Z,32.68
2017-01-29T05:31:30.364Z,32.51
2017-01-29T05:32:10.961Z,32.6
2017-01-29T05:32:51.556Z,32.6
2017-01-29T05:33:32.153Z,32.51
2017-01-29T05:34:12.746Z,32.39
2017-01-29T05:34:53.340Z,31.93
2017-01-29T05:35:33.935Z,32.41
2017-01-29T05:36:14.524Z,32.29
2017-01-29T05:36:55.121Z,32.41
2017-01-29T05:37:35.707Z,32.51
2017-01-29T05:38:16.330Z,32.29
2017-01-29T05:38:56.933Z,32.41
2017-01-29T05:39:37.520Z,32.49
2017-01-29T05:40:18.111Z,32.39
2017-01-29T05:40:58.686Z,32.59
2017-01-29T05:41:39.265Z,32.78
2017-01-29T05:42:19.858Z,32.6
2017-01-29T05:43:00.453Z,32.79
2017-01-29T05:43:41.042Z,32.39
2017-01-29T05:44:21.648Z,32.49
2017-01-29T05:45:02.235Z,32.49
2017-01-29T05:45:42.820Z,32.7
2017-01-29T05:46:23.409Z,32.7
2017-01-29T05:47:03.983Z,32.59
2017-01-29T05:47:44.586Z,32.49
2017-01-29T05:48:25.172Z,32.39
2017-01-29T05:49:05.766Z,32.31
2017-01-29T05:49:46.353Z,32.6
2017-01-29T05:50:26.942Z,32.39
2017-01-29T05:51:07.542Z,32.59
2017-01-29T05:51:48.126Z,32.51
2017-01-29T05:52:28.726Z,32.41
2017-01-29T05:53:09.295Z,32.29
2017-01-29T05:53:49.920Z,32.29
2017-01-29T05:54:30.509Z,32.31
2017-01-29T05:55:11.101Z,32.21
2017-01-29T05:55:51.692Z,32.29
2017-01-29T05:56:32.269Z,32.39
2017-01-29T05:57:12.874Z,32.41
2017-01-29T05:57:53.465Z,32.79
2017-01-29T05:58:34.072Z,32.21
2017-01-29T05:59:14.646Z,32.21
2017-01-29T05:59:55.231Z,32.41
2017-01-29T06:00:35.823Z,32.51
2017-01-29T06:01:16.416Z,32.7
2017-01-29T06:01:57.020Z,32.21
2017-01-29T06:02:37.602Z,32.49
2017-01-29T06:03:18.174Z,32.49
2017-01-29T06:03:58.780Z,32.39
2017-01-29T06:04:39.364Z,32.21
2017-01-29T06:05:19.996Z,32.39
2017-01-29T06:06:00.590Z,32.49
2017-01-29T06:06:41.167Z,32.39
2017-01-29T06:07:21.750Z,32.49
2017-01-29T06:08:02.338Z,32.39
2017-01-29T06:08:42.917Z,32.41
2017-01-29T06:09:23.504Z,32.39
2017-01-29T06:10:04.089Z,32.39
2017-01-29T06:10:44.674Z,32.59
2017-01-29T06:11:25.262Z,32.39
2017-01-29T06:12:05.853Z,32.29
2017-01-29T06:12:46.458Z,32.39
2017-01-29T06:13:27.044Z,32.39
2017-01-29T06:14:07.654Z,32.49
2017-01-29T06:14:48.278Z,32.39
2017-01-29T06:15:28.843Z,32.39
2017-01-29T06:16:09.438Z,32.41
2017-01-29T06:16:50.026Z,32.7
2017-01-29T06:17:30.613Z,32.39
2017-01-29T06:18:11.214Z,32.51
2017-01-29T06:18:51.823Z,32.49
2017-01-29T06:19:32.429Z,32.29
2017-01-29T06:20:13.023Z,32.49
2017-01-29T06:20:53.638Z,32.49
2017-01-29T06:21:34.229Z,32.39
2017-01-29T06:22:14.820Z,32.49
2017-01-29T06:22:55.428Z,32.49
2017-01-29T06:23:36.017Z,32.51
2017-01-29T06:24:16.625Z,32.59
2017-01-29T06:24:57.219Z,32.41
2017-01-29T06:25:37.802Z,32.49
2017-01-29T06:26:18.378Z,32.51
2017-01-29T06:26:58.988Z,32.49
2017-01-29T06:27:39.604Z,32.1
2017-01-29T06:28:20.200Z,32.49
2017-01-29T06:29:00.809Z,32.41
2017-01-29T06:29:41.387Z,32.49
2017-01-29T06:30:21.990Z,32.51
2017-01-29T06:31:02.579Z,32.49
2017-01-29T06:31:43.172Z,32.39
2017-01-29T06:32:23.750Z,32.49
2017-01-29T06:33:04.345Z,32.41
2017-01-29T06:33:44.949Z,32.39
2017-01-29T06:34:25.522Z,32.49
2017-01-29T06:35:06.121Z,32.49
2017-01-29T06:35:46.711Z,32.29
2017-01-29T06:36:27.315Z,32.49
2017-01-29T06:37:07.895Z,32.59
2017-01-29T06:37:48.476Z,32.49
2017-01-29T06:38:29.058Z,32.39
2017-01-29T06:39:09.638Z,32.31
2017-01-29T06:39:50.223Z,32.29
2017-01-29T06:40:30.822Z,32.6
2017-01-29T06:41:11.417Z,32.29
2017-01-29T06:41:52.008Z,32.29
2017-01-29T06:42:32.589Z,32.29
2017-01-29T06:43:13.177Z,32.21
2017-01-29T06:43:53.760Z,32.39
2017-01-29T06:44:34.385Z,32.39
2017-01-29T06:45:14.986Z,32.51
2017-01-29T06:45:55.566Z,32.2
2017-01-29T06:46:36.155Z,32.49
2017-01-29T06:47:16.749Z,32.41
2017-01-29T06:47:57.349Z,32.6
2017-01-29T06:48:37.939Z,32.31
2017-01-29T06:49:18.535Z,32.29
2017-01-29T06:49:59.143Z,32.39
2017-01-29T06:50:39.734Z,32.29
2017-01-29T06:51:20.321Z,32.51
2017-01-29T06:52:00.909Z,32.39
2017-01-29T06:52:41.509Z,32.29
2017-01-29T06:53:22.100Z,32.2
2017-01-29T06:54:02.690Z,32.39
2017-01-29T06:54:43.278Z,32.39
2017-01-29T06:55:23.864Z,32.21
2017-01-29T06:56:04.442Z,32.6
2017-01-29T06:56:45.031Z,32.2
2017-01-29T06:57:25.613Z,32.39
2017-01-29T06:58:06.192Z,32.2
2017-01-29T06:58:46.784Z,32.39
2017-01-29T06:59:27.356Z,32.29
2017-01-29T07:00:07.950Z,32.29
2017-01-29T07:00:48.561Z,32.29
2017-01-29T07:01:29.161Z,32.29
2017-01-29T07:02:09.764Z,32.49
2017-01-29T07:02:50.352Z,32.29
2017-01-29T07:03:30.946Z,32.21
2017-01-29T07:04:11.547Z,32.2
2017-01-29T07:04:52.134Z,32.41
2017-01-29T07:05:32.717Z,32.39
2017-01-29T07:06:13.308Z,32.29
2017-01-29T07:06:53.902Z,32.29
2017-01-29T07:07:34.494Z,32.49
2017-01-29T07:08:15.083Z,32.41
2017-01-29T07:08:55.671Z,32.39
2017-01-29T07:09:36.250Z,32.29
2017-01-29T07:10:16.864Z,32.2
2017-01-29T07:10:57.450Z,32.39
2017-01-29T07:11:38.043Z,32.39
2017-01-29T07:12:18.645Z,32.49
2017-01-29T07:12:59.228Z,32.49
2017-01-29T07:13:40.349Z,32.2
2017-01-29T07:14:20.948Z,32.29
2017-01-29T07:15:01.542Z,32.39
2017-01-29T07:15:42.143Z,32.41
2017-01-29T07:16:22.729Z,32.29
2017-01-29T07:17:03.319Z,32.29
2017-01-29T07:17:43.911Z,32.2
2017-01-29T07:18:24.495Z,32.39
2017-01-29T07:19:05.075Z,32.39
2017-01-29T07:19:45.661Z,32.39
2017-01-29T07:20:26.238Z,32.29
2017-01-29T07:21:06.823Z,32.39
2017-01-29T07:21:47.422Z,32.29
2017-01-29T07:22:28.001Z,32.39
2017-01-29T07:23:08.599Z,32.39
2017-01-29T07:23:49.176Z,32.29
2017-01-29T07:24:29.787Z,32.31
2017-01-29T07:25:10.392Z,32.1
2017-01-29T07:25:51.852Z,32.2
2017-01-29T07:26:32.450Z,31.73
2017-01-29T07:27:13.033Z,32.49
2017-01-29T07:27:53.631Z,32.03
2017-01-29T07:28:34.219Z,32.03
2017-01-29T07:29:14.814Z,32.1
2017-01-29T07:29:55.418Z,32.29
2017-01-29T07:30:36.018Z,32.41
2017-01-29T07:31:16.603Z,32.39
2017-01-29T07:31:57.188Z,32.39
2017-01-29T07:32:37.776Z,32.12
2017-01-29T07:33:18.356Z,31.83
2017-01-29T07:33:58.978Z,32.29
2017-01-29T07:34:39.556Z,32.1
2017-01-29T07:35:20.149Z,32.2
2017-01-29T07:36:00.729Z,32.01
2017-01-29T07:36:41.306Z,32.31
2017-01-29T07:37:21.898Z,31.62
2017-01-29T07:38:02.487Z,32.2
2017-01-29T07:38:43.089Z,32.1
2017-01-29T07:39:23.663Z,31.62
2017-01-29T07:40:04.254Z,32.1
2017-01-29T07:40:44.853Z,32.29
2017-01-29T07:41:25.454Z,32.1
2017-01-29T07:42:06.043Z,32.2
2017-01-29T07:42:46.619Z,32.1
2017-01-29T07:43:27.223Z,32.1
2017-01-29T07:44:07.817Z,31.62
2017-01-29T07:44:48.437Z,32.31
2017-01-29T07:45:29.031Z,32.2
2017-01-29T07:46:09.630Z,31.62
2017-01-29T07:46:50.230Z,32.1
2017-01-29T07:47:30.840Z,32.1
2017-01-29T07:48:11.415Z,32.2
2017-01-29T07:48:52.016Z,32.2
2017-01-29T07:49:32.635Z,32.29
2017-01-29T07:50:13.250Z,31.91
2017-01-29T07:50:53.866Z,32.01
2017-01-29T07:51:34.443Z,32.01
2017-01-29T07:52:15.053Z,32.12
2017-01-29T07:52:55.656Z,32.29
2017-01-29T07:53:36.247Z,32.1
2017-01-29T07:54:16.849Z,32.2
2017-01-29T07:54:57.451Z,32.12
2017-01-29T07:55:38.063Z,32.1
2017-01-29T07:56:18.650Z,32.2
2017-01-29T07:56:59.252Z,32.2
2017-01-29T07:57:39.853Z,32.2
2017-01-29T07:58:20.438Z,32.21
2017-01-29T07:59:01.020Z,32.29
2017-01-29T07:59:41.610Z,32.29
2017-01-29T08:00:22.211Z,32.2
2017-01-29T08:01:02.810Z,32.1
2017-01-29T08:01:43.400Z,32.2
2017-01-29T08:02:23.985Z,32.29
2017-01-29T08:03:04.575Z,32.1
2017-01-29T08:03:45.170Z,32.21
2017-01-29T08:04:25.758Z,31.81
2017-01-29T08:05:06.338Z,32.21
2017-01-29T08:05:46.925Z,32.21
2017-01-29T08:06:27.507Z,32.2
2017-01-29T08:07:08.091Z,32.2
2017-01-29T08:07:48.680Z,31.91
2017-01-29T08:08:29.277Z,32.1
2017-01-29T08:09:09.875Z,32.2
2017-01-29T08:09:50.486Z,32.21
2017-01-29T08:10:31.086Z,32.2
2017-01-29T08:11:11.657Z,32.2
2017-01-29T08:11:52.249Z,31.91
2017-01-29T08:12:32.839Z,32.21
2017-01-29T08:13:13.428Z,32.2
2017-01-29T08:13:54.020Z,32.29
2017-01-29T08:14:34.643Z,31.81
2017-01-29T08:15:15.248Z,31.93
2017-01-29T08:15:55.849Z,32.01
2017-01-29T08:16:36.444Z,32.1
2017-01-29T08:17:17.043Z,32.29
2017-01-29T08:17:57.636Z,32.2
2017-01-29T08:18:38.231Z,32.29
2017-01-29T08:19:18.822Z,32.2
2017-01-29T08:19:59.424Z,32.2
2017-01-29T08:20:40.015Z,32.2
2017-01-29T08:21:20.632Z,31.91
2017-01-29T08:22:01.226Z,32.2
2017-01-29T08:22:41.863Z,32.1
2017-01-29T08:23:22.468Z,32.12
2017-01-29T08:24:03.063Z,32.21
2017-01-29T08:24:43.667Z,32.1
2017-01-29T08:25:24.273Z,32.12
2017-01-29T08:26:04.867Z,32.1
2017-01-29T08:26:45.452Z,32.2
2017-01-29T08:27:26.049Z,32.12
2017-01-29T08:28:06.630Z,32.1
2017-01-29T08:28:47.228Z,32.2
2017-01-29T08:29:27.825Z,32.2
2017-01-29T08:30:08.435Z,32.2
2017-01-29T08:30:49.045Z,32.21
2017-01-29T08:31:29.631Z,32.2
2017-01-29T08:32:10.223Z,32.2
2017-01-29T08:32:50.799Z,32.31
2017-01-29T08:33:31.407Z,32.1
2017-01-29T08:34:11.990Z,32.2
2017-01-29T08:34:52.567Z,32.29
2017-01-29T08:35:33.149Z,32.1
2017-01-29T08:36:13.744Z,32.1
2017-01-29T08:36:54.341Z,32.12
2017-01-29T08:37:34.956Z,32.01
2017-01-29T08:38:15.557Z,32.1
2017-01-29T08:38:56.145Z,32.2
2017-01-29T08:39:36.731Z,32.2
2017-01-29T08:40:17.331Z,32.2
2017-01-29T08:40:57.924Z,32.2
2017-01-29T08:41:38.516Z,32.1
2017-01-29T08:42:19.120Z,32.1
2017-01-29T08:42:59.728Z,32.2
2017-01-29T08:43:40.341Z,31.91
2017-01-29T08:44:20.911Z,32.1
2017-01-29T08:45:01.500Z,32.2
2017-01-29T08:45:42.078Z,32.2
2017-01-29T08:46:22.661Z,32.2
2017-01-29T08:47:03.250Z,32.1
2017-01-29T08:47:43.836Z,32.1
2017-01-29T08:48:24.460Z,32.1
2017-01-29T08:49:05.067Z,32.01